< < Back
Terminal Aerodrome Forecast


Current Version              Previous Versions:   1  2  3  4  5  6  7  8  9  

Terminal Aerodrome Forecast

165
FTUS44 KOHX 070832 AAA
TAFBNA
TAF AMD
KBNA 070832Z 0709/0806 19007KT P6SM SCT040 BKN070
      TEMPO 0710/0712 3SM -TSRA BR BKN025CB OVC040
     FM071300 21008G17KT P6SM SCT030 SCT120 SCT250
     FM080000 21007KT P6SM OVC250=

Latest METAR

624
SAUS70 KWBC 072000 RRJ
MTRBNA
METAR KBNA 071953Z 22010G16KT 10SM BKN050 BKN250 31/22 A3005 RMK AO2
SLP168 T03110217


USA.gov is the U.S. government's official web portal to all federal, state and local government web resources and services.